This is the latest recevied weather packets stored in our database for station/object KB0BS-13. If no packets are shown the sender has not sent any weather packets the latest 10 day(s).
| Time | Temp. | Humidity | Pressure | Rain* | Wind** | Luminosity | Snow |
|---|---|---|---|---|---|---|---|
| 1777779129 | 1.11° C | 79% | 1014 hPa | 0 mm | - | 0 W/m² | - |
| 1777778828 | 1.11° C | 78% | 1014 hPa | 0 mm | - | 0 W/m² | - |
| 1777778526 | 1.11° C | 79% | 1014 hPa | 0 mm | - | 0 W/m² | - |
| 1777778222 | 1.11° C | 80% | 1014.1 hPa | 0 mm | - | 0 W/m² | - |
| 1777777920 | 1.67° C | 78% | 1014.1 hPa | 0 mm | - | 0 W/m² | - |
| 1777777616 | 1.67° C | 75% | 1014.3 hPa | 0 mm | - | 0 W/m² | - |
| 1777777313 | 1.67° C | 76% | 1014.3 hPa | 0 mm | - | 0 W/m² | - |
| 1777777010 | 1.67° C | 75% | 1014.3 hPa | 0 mm | - | 0 W/m² | - |
| 1777776708 | 1.67° C | 74% | 1014.5 hPa | 0 mm | - | 0 W/m² | - |
| 1777776404 | 1.67° C | 74% | 1014.4 hPa | 0 mm | - | 0 W/m² | - |
| 1777776102 | 2.22° C | 73% | 1014.4 hPa | 0 mm | - | 0 W/m² | - |
| 1777775798 | 2.22° C | 73% | 1014.4 hPa | 0 mm | - | 0 W/m² | - |
| 1777775495 | 2.78° C | 70% | 1014.7 hPa | 0 mm | - | 0 W/m² | - |
| 1777775191 | 2.78° C | 70% | 1014.6 hPa | 0 mm | - | 0 W/m² | - |
| 1777774886 | 2.22° C | 70% | 1014.6 hPa | 0 mm | - | 0 W/m² | - |
| 1777774583 | 2.22° C | 69% | 1014.6 hPa | 0 mm | - | 0 W/m² | - |
| 1777774280 | 2.78° C | 68% | 1014.6 hPa | 0 mm | - | 0 W/m² | - |
| 1777773977 | 2.78° C | 67% | 1014.7 hPa | 0 mm | - | 0 W/m² | - |
| 1777773674 | 2.78° C | 66% | 1014.8 hPa | 0 mm | - | 0 W/m² | - |
| 1777773371 | 2.78° C | 66% | 1014.7 hPa | 0 mm | - | 0 W/m² | - |
| 1777773068 | 2.78° C | 65% | 1014.6 hPa | 0 mm | - | 0 W/m² | - |
| 1777772764 | 2.78° C | 64% | 1014.8 hPa | 0 mm | - | 0 W/m² | - |
| 1777772159 | 3.33° C | 64% | 1014.8 hPa | 0 mm | - | 0 W/m² | - |
| 1777771554 | 3.89° C | 61% | 1014.4 hPa | 0 mm | - | 0 W/m² | - |
| 1777769735 | 5° C | 57% | 1014.6 hPa | 0 mm | - | 1 W/m² | - |
* Rain latest hour (hover to see other rain measurements)
** Current wind speed in m/s (hover to see current wind gust speed)